createdAt,value
2023-07-04T00:01:26.586Z,2.83
2023-07-04T00:03:58.312Z,4.65
2023-07-04T00:06:30.433Z,5.45
2023-07-04T00:08:58.676Z,3.22
2023-07-04T00:11:26.770Z,3.42
2023-07-04T00:13:55.066Z,3.15
2023-07-04T00:16:23.155Z,3.67
2023-07-04T00:18:51.766Z,3.65
2023-07-04T00:21:21.680Z,5.70
2023-07-04T00:23:54.800Z,2.95
2023-07-04T00:26:24.967Z,3.38
2023-07-04T00:28:53.519Z,4.25
2023-07-04T00:31:25.012Z,4.28
2023-07-04T00:33:54.373Z,2.72
2023-07-04T00:36:24.381Z,4.88
2023-07-04T00:38:58.083Z,3.33
2023-07-04T00:41:30.083Z,3.35
2023-07-04T00:44:08.951Z,5.28
2023-07-04T00:46:40.691Z,3.63
2023-07-04T00:49:24.013Z,3.67
2023-07-04T00:52:02.101Z,4.22
2023-07-04T00:54:34.145Z,3.75
2023-07-04T00:57:04.207Z,2.45
2023-07-04T00:59:34.753Z,4.13
2023-07-04T01:02:03.163Z,3.30
2023-07-04T01:04:34.418Z,3.88
2023-07-04T01:07:16.889Z,2.85
2023-07-04T01:09:51.005Z,3.90
2023-07-04T01:12:19.818Z,7.15
2023-07-04T01:14:49.378Z,4.40
2023-07-04T01:17:17.468Z,3.65
2023-07-04T01:19:46.738Z,4.55
2023-07-04T01:22:28.895Z,3.40
2023-07-04T01:25:06.660Z,4.85
2023-07-04T01:27:38.233Z,4.20
2023-07-04T01:30:13.489Z,4.38
2023-07-04T01:32:43.612Z,4.35
2023-07-04T01:35:14.569Z,4.10
2023-07-04T01:37:42.804Z,3.67
2023-07-04T01:40:12.218Z,4.60
2023-07-04T01:42:42.227Z,3.55
2023-07-04T01:45:11.503Z,3.83
2023-07-04T01:47:40.466Z,5.95
2023-07-04T01:50:11.911Z,3.10
2023-07-04T01:52:41.283Z,5.13
2023-07-04T01:55:12.133Z,8.80
2023-07-04T01:57:42.435Z,3.80
2023-07-04T02:00:14.526Z,5.53
2023-07-04T02:02:43.588Z,5.32
2023-07-04T02:05:11.693Z,3.65
2023-07-04T02:07:39.722Z,3.30
2023-07-04T02:10:09.204Z,4.95
2023-07-04T02:12:37.297Z,6.18
2023-07-04T02:15:09.140Z,4.00
2023-07-04T02:17:37.678Z,5.97
2023-07-04T02:20:06.904Z,3.92
2023-07-04T02:22:35.150Z,3.78
2023-07-04T02:25:04.115Z,6.00
2023-07-04T02:27:32.360Z,5.72
2023-07-04T02:30:00.505Z,5.85
2023-07-04T02:32:30.033Z,4.32
2023-07-04T02:34:58.135Z,7.55
2023-07-04T02:37:26.249Z,6.45
2023-07-04T02:39:55.721Z,5.40
2023-07-04T02:42:23.878Z,5.60
2023-07-04T02:44:52.645Z,4.05
2023-07-04T02:47:24.613Z,5.20
2023-07-04T02:49:54.320Z,4.22
2023-07-04T02:52:22.906Z,5.07
2023-07-04T02:54:51.014Z,4.22
2023-07-04T02:57:19.371Z,5.45
2023-07-04T02:59:48.100Z,4.60
2023-07-04T03:02:16.255Z,3.53
2023-07-04T03:04:44.953Z,4.43
2023-07-04T03:07:14.428Z,4.65
2023-07-04T03:09:43.212Z,6.15
2023-07-04T03:12:11.447Z,5.28
2023-07-04T03:14:39.586Z,4.72
2023-07-04T03:17:07.740Z,6.45
2023-07-04T03:19:36.020Z,5.43
2023-07-04T03:22:04.119Z,5.32
2023-07-04T03:24:33.580Z,5.65
2023-07-04T03:27:01.791Z,4.25
2023-07-04T03:29:29.992Z,5.47
2023-07-04T03:31:58.055Z,5.03
2023-07-04T03:34:26.090Z,5.10
2023-07-04T03:36:54.132Z,4.75
2023-07-04T03:39:22.210Z,5.43
2023-07-04T03:41:51.759Z,7.45
2023-07-04T03:44:19.824Z,5.10
2023-07-04T03:46:47.939Z,5.40
2023-07-04T03:49:16.091Z,4.18
2023-07-04T03:51:45.764Z,5.82
2023-07-04T03:54:15.669Z,7.25
2023-07-04T03:56:43.811Z,5.03
2023-07-04T03:59:13.293Z,6.65
2023-07-04T04:01:41.438Z,3.92
2023-07-04T04:04:09.706Z,5.30
2023-07-04T04:06:37.961Z,4.13
2023-07-04T04:09:06.061Z,4.07
2023-07-04T04:11:34.080Z,4.82
2023-07-04T04:14:02.267Z,3.50
2023-07-04T04:16:31.788Z,6.65
2023-07-04T04:19:00.074Z,4.50
2023-07-04T04:21:28.148Z,6.22
2023-07-04T04:23:56.585Z,6.72
2023-07-04T04:26:25.609Z,7.70
2023-07-04T04:28:54.611Z,7.05
2023-07-04T04:31:23.118Z,6.93
2023-07-04T04:33:52.697Z,5.32
2023-07-04T04:36:21.905Z,4.95
2023-07-04T04:38:50.810Z,5.15
2023-07-04T04:41:18.883Z,6.70
2023-07-04T04:43:51.443Z,6.15
2023-07-04T04:46:19.929Z,6.32
2023-07-04T04:48:48.114Z,7.00
2023-07-04T04:51:17.698Z,7.25
2023-07-04T04:53:46.635Z,8.13
2023-07-04T04:56:14.885Z,6.65
2023-07-04T04:58:45.138Z,5.85
2023-07-04T05:01:17.071Z,5.65
2023-07-04T05:03:45.273Z,6.30
2023-07-04T05:06:14.259Z,6.95
2023-07-04T05:08:44.418Z,6.10
2023-07-04T05:11:12.536Z,8.05
2023-07-04T05:13:41.353Z,5.38
2023-07-04T05:16:12.985Z,5.60
2023-07-04T05:18:42.289Z,5.20
2023-07-04T05:21:12.461Z,6.50
2023-07-04T05:23:43.024Z,7.63
2023-07-04T05:26:15.055Z,6.55
2023-07-04T05:28:43.551Z,12.02
2023-07-04T05:31:16.345Z,6.57
2023-07-04T05:33:44.909Z,5.25
2023-07-04T05:36:16.115Z,6.45
2023-07-04T05:38:45.061Z,8.45
2023-07-04T05:41:16.747Z,5.43
2023-07-04T05:43:45.795Z,5.57
2023-07-04T05:46:14.719Z,5.43
2023-07-04T05:48:43.172Z,7.28
2023-07-04T05:51:13.028Z,6.18
2023-07-04T05:53:43.113Z,4.97
2023-07-04T05:56:13.845Z,8.38
2023-07-04T05:58:45.011Z,4.38
2023-07-04T06:01:16.146Z,5.05
2023-07-04T06:03:45.470Z,4.13
2023-07-04T06:06:19.748Z,5.22
2023-07-04T06:08:48.236Z,4.05
2023-07-04T06:11:17.384Z,6.18
2023-07-04T06:13:47.208Z,4.15
2023-07-04T06:16:15.802Z,5.07
2023-07-04T06:18:44.778Z,3.70
2023-07-04T06:21:14.788Z,4.15
2023-07-04T06:23:44.296Z,4.00
2023-07-04T06:26:13.589Z,5.78
2023-07-04T06:28:43.230Z,4.60
2023-07-04T06:31:16.110Z,5.22
2023-07-04T06:33:44.696Z,5.45
2023-07-04T06:36:15.036Z,5.88
2023-07-04T06:38:43.507Z,4.03
2023-07-04T06:41:13.635Z,3.63
2023-07-04T06:43:44.665Z,4.60
2023-07-04T06:46:15.883Z,7.43
2023-07-04T06:48:44.608Z,4.30
2023-07-04T06:51:14.880Z,4.20
2023-07-04T06:53:43.716Z,5.05
2023-07-04T06:56:13.810Z,7.35
2023-07-04T06:58:44.018Z,3.78
2023-07-04T07:01:14.009Z,4.65
2023-07-04T07:03:42.786Z,4.47
2023-07-04T07:06:12.647Z,5.72
2023-07-04T07:08:41.107Z,4.82
2023-07-04T07:11:12.654Z,4.72
2023-07-04T07:13:41.474Z,5.22
2023-07-04T07:16:11.824Z,6.38
2023-07-04T07:18:43.145Z,3.88
2023-07-04T07:21:14.652Z,5.05
2023-07-04T07:23:43.212Z,5.60
2023-07-04T07:26:13.509Z,5.18
2023-07-04T07:28:42.272Z,3.63
2023-07-04T07:31:13.792Z,5.72
2023-07-04T07:33:46.775Z,4.20
2023-07-04T07:36:17.263Z,3.78
2023-07-04T07:38:45.522Z,4.97
2023-07-04T07:41:14.129Z,5.55
2023-07-04T07:43:43.444Z,6.28
2023-07-04T07:46:12.770Z,4.75
2023-07-04T07:48:41.552Z,6.47
2023-07-04T07:51:13.648Z,5.80
2023-07-04T07:53:43.635Z,3.97
2023-07-04T07:56:15.400Z,5.07
2023-07-04T07:58:44.218Z,4.47
2023-07-04T08:01:13.663Z,5.28
2023-07-04T08:03:42.352Z,5.32
2023-07-04T08:06:21.338Z,4.75
2023-07-04T08:08:49.868Z,5.32
2023-07-04T08:11:18.771Z,4.95
2023-07-04T08:13:47.475Z,5.05
2023-07-04T08:16:19.853Z,4.63
2023-07-04T08:18:48.491Z,4.40
2023-07-04T08:21:18.823Z,3.65
2023-07-04T08:23:47.344Z,4.78
2023-07-04T08:26:20.793Z,5.50
2023-07-04T08:28:49.429Z,4.25
2023-07-04T08:31:20.249Z,4.53
2023-07-04T08:33:49.081Z,4.85
2023-07-04T08:36:20.260Z,4.65
2023-07-04T08:38:50.271Z,3.63
2023-07-04T08:41:30.298Z,5.43
2023-07-04T08:44:02.923Z,5.05
2023-07-04T08:46:37.442Z,5.18
2023-07-04T08:49:06.407Z,4.00
2023-07-04T08:51:41.214Z,3.88
2023-07-04T08:54:14.113Z,4.20
2023-07-04T08:56:42.842Z,4.35
2023-07-04T08:59:18.400Z,4.00
2023-07-04T09:02:07.732Z,6.95
2023-07-04T09:04:48.949Z,6.63
2023-07-04T09:07:26.471Z,4.90
2023-07-04T09:10:03.775Z,6.13
2023-07-04T09:12:37.066Z,8.10
2023-07-04T09:15:16.253Z,4.65
2023-07-04T09:17:51.123Z,5.10
2023-07-04T09:20:19.806Z,3.90
2023-07-04T09:22:49.358Z,3.85
2023-07-04T09:25:17.560Z,3.92
2023-07-04T09:27:45.872Z,3.97
2023-07-04T09:30:15.694Z,4.03
2023-07-04T09:32:44.657Z,4.18
2023-07-04T09:35:13.583Z,5.57
2023-07-04T09:38:04.529Z,4.55
2023-07-04T09:40:45.112Z,5.18
2023-07-04T09:43:14.199Z,4.90
2023-07-04T09:45:42.755Z,4.35
2023-07-04T09:48:12.247Z,4.72
2023-07-04T09:50:40.762Z,5.82
2023-07-04T09:53:12.244Z,4.05
2023-07-04T09:55:42.198Z,4.55
2023-07-04T09:58:20.827Z,3.25
2023-07-04T10:01:08.024Z,3.20
2023-07-04T10:03:36.198Z,3.95
2023-07-04T10:06:05.273Z,4.28
2023-07-04T10:08:50.390Z,4.90
2023-07-04T10:11:26.688Z,3.65
2023-07-04T10:14:02.014Z,4.15
2023-07-04T10:16:30.197Z,2.45
2023-07-04T10:19:05.495Z,3.92
2023-07-04T10:21:33.566Z,3.40
2023-07-04T10:24:04.507Z,3.03
2023-07-04T17:20:32.526Z,1.40
2023-07-04T17:23:00.705Z,1.55
2023-07-04T17:25:28.918Z,1.65
2023-07-04T17:27:58.794Z,4.28
2023-07-04T17:30:27.392Z,1.67
2023-07-04T17:32:55.712Z,1.75
2023-07-04T17:35:24.126Z,1.63
2023-07-04T17:37:53.682Z,1.60
2023-07-04T17:40:21.900Z,1.80
2023-07-04T17:42:50.150Z,3.10
2023-07-04T17:45:18.602Z,2.70
2023-07-04T17:47:46.831Z,3.47
2023-07-04T17:50:17.271Z,1.73
2023-07-04T17:52:45.636Z,2.47
2023-07-04T17:55:16.270Z,2.92
2023-07-04T17:57:44.922Z,3.35
2023-07-04T18:00:14.085Z,2.97
2023-07-04T18:02:42.862Z,4.28
2023-07-04T18:05:11.679Z,2.20
2023-07-04T18:07:39.892Z,1.42
2023-07-04T18:10:08.917Z,2.72
2023-07-04T18:12:39.021Z,2.78
2023-07-04T18:15:08.247Z,2.17
2023-07-04T18:17:36.478Z,1.77
2023-07-04T18:20:05.519Z,1.90
2023-07-04T18:22:33.748Z,2.38
2023-07-04T18:25:01.961Z,1.80
2023-07-04T18:27:30.812Z,2.17
2023-07-04T18:30:00.911Z,4.13
2023-07-04T18:32:29.328Z,4.25
2023-07-04T18:34:57.516Z,4.15
2023-07-04T18:37:27.287Z,2.83
2023-07-04T18:39:55.551Z,1.85
2023-07-04T18:42:23.817Z,2.47
2023-07-04T18:44:51.965Z,2.03
2023-07-04T18:47:21.532Z,3.00
2023-07-04T18:49:51.766Z,1.48
2023-07-04T18:52:19.998Z,1.90
2023-07-04T18:54:48.193Z,3.10
2023-07-04T18:57:16.416Z,2.15
2023-07-04T18:59:45.181Z,1.65
2023-07-04T19:02:13.579Z,2.33
2023-07-04T19:04:43.244Z,3.97
2023-07-04T19:07:11.459Z,1.33
2023-07-04T19:09:40.129Z,2.78
2023-07-04T19:12:10.135Z,3.05
2023-07-04T19:14:38.304Z,1.67
2023-07-04T19:17:07.389Z,3.35
2023-07-04T19:19:40.629Z,1.92
2023-07-04T19:22:13.197Z,1.90
2023-07-04T19:24:42.811Z,2.40
2023-07-04T19:27:15.675Z,3.00
2023-07-04T19:29:45.080Z,2.05
2023-07-04T19:32:14.247Z,1.90
2023-07-04T19:34:42.750Z,3.42
2023-07-04T19:37:13.998Z,1.48
2023-07-04T19:39:44.037Z,1.77
2023-07-04T19:42:13.128Z,1.58
2023-07-04T19:44:41.293Z,1.95
2023-07-04T19:47:09.654Z,1.92
2023-07-04T19:49:39.037Z,2.35
2023-07-04T19:52:08.433Z,2.35
2023-07-04T19:54:38.068Z,1.70
2023-07-04T19:57:07.151Z,2.55
2023-07-04T19:59:35.425Z,2.38
2023-07-04T20:02:04.034Z,2.22
2023-07-04T20:04:33.851Z,2.70
2023-07-04T20:07:02.053Z,2.03
2023-07-04T20:09:30.733Z,2.92
2023-07-04T20:12:00.829Z,2.92
2023-07-04T20:14:30.369Z,3.05
2023-07-04T20:16:59.691Z,2.05
2023-07-04T20:19:27.861Z,2.05
2023-07-04T20:21:56.334Z,2.38
2023-07-04T20:24:24.540Z,3.65
2023-07-04T20:26:52.715Z,2.22
2023-07-04T20:29:22.219Z,1.80
2023-07-04T20:31:50.517Z,2.40
2023-07-04T20:34:18.801Z,2.22
2023-07-04T20:36:47.009Z,2.45
2023-07-04T20:39:15.281Z,3.30
2023-07-04T20:41:43.516Z,2.08
2023-07-04T20:44:11.664Z,1.42
2023-07-04T20:46:41.282Z,1.35
2023-07-04T20:49:09.818Z,2.65
2023-07-04T20:51:38.198Z,2.47
2023-07-04T20:54:08.846Z,3.22
2023-07-04T20:56:37.009Z,1.90
2023-07-04T20:59:05.292Z,1.60
2023-07-04T21:01:33.954Z,1.50
2023-07-04T21:04:03.612Z,2.40
2023-07-04T21:06:31.819Z,5.07
2023-07-04T21:09:00.966Z,3.88
2023-07-04T21:11:29.104Z,3.75
2023-07-04T21:13:57.310Z,3.28
2023-07-04T21:16:25.640Z,1.10
2023-07-04T21:18:53.924Z,1.40
2023-07-04T21:21:23.557Z,1.60
2023-07-04T21:23:51.730Z,1.33
2023-07-04T21:26:20.712Z,2.42
2023-07-04T21:28:48.860Z,2.28
2023-07-04T21:31:17.205Z,2.85
2023-07-04T21:33:45.724Z,2.13
2023-07-04T21:36:13.964Z,2.45
2023-07-04T21:38:45.222Z,1.80
2023-07-04T21:41:13.502Z,2.10
2023-07-04T21:43:41.804Z,2.22
2023-07-04T21:46:11.332Z,3.92
2023-07-04T21:48:40.744Z,2.88
2023-07-04T21:51:09.988Z,1.58
2023-07-04T21:53:38.708Z,3.42
2023-07-04T21:56:09.018Z,2.00
2023-07-04T21:58:37.209Z,1.95
2023-07-04T22:01:06.510Z,2.85
2023-07-04T22:03:36.222Z,1.75
2023-07-04T22:06:05.863Z,4.55
2023-07-04T22:08:35.745Z,2.90
2023-07-04T22:11:04.506Z,1.73
2023-07-04T22:13:35.624Z,1.95
2023-07-04T22:16:04.082Z,1.88
2023-07-04T22:18:33.223Z,3.70
2023-07-04T22:21:05.042Z,3.20
2023-07-04T22:23:33.897Z,3.22
2023-07-04T22:26:02.122Z,3.38
2023-07-04T22:28:31.801Z,3.13
2023-07-04T22:31:03.707Z,2.38
2023-07-04T22:33:34.317Z,1.60
2023-07-04T22:36:02.747Z,2.55
2023-07-04T22:38:30.991Z,2.90
2023-07-04T22:40:59.094Z,4.60
2023-07-04T22:43:27.388Z,1.63
2023-07-04T22:45:57.496Z,1.52
2023-07-04T22:48:28.224Z,2.83
2023-07-04T22:51:01.086Z,1.65
2023-07-04T22:53:30.045Z,3.25
2023-07-04T22:55:58.672Z,3.45
2023-07-04T22:58:27.805Z,3.20
2023-07-04T23:00:55.943Z,2.13
2023-07-04T23:03:24.321Z,2.72
2023-07-04T23:05:54.343Z,2.67
2023-07-04T23:08:22.667Z,1.85
2023-07-04T23:10:50.791Z,1.50
2023-07-04T23:13:19.108Z,2.60
2023-07-04T23:15:47.248Z,1.73
2023-07-04T23:18:15.510Z,2.47
2023-07-04T23:20:43.850Z,2.25
2023-07-04T23:23:13.558Z,3.20
2023-07-04T23:25:41.788Z,4.93
2023-07-04T23:28:10.011Z,2.75
2023-07-04T23:30:38.244Z,2.10
2023-07-04T23:33:06.469Z,2.25
2023-07-04T23:35:34.652Z,1.92
2023-07-04T23:38:02.801Z,4.65
2023-07-04T23:40:32.376Z,2.92
2023-07-04T23:43:00.655Z,3.10
2023-07-04T23:45:28.866Z,1.92
2023-07-04T23:47:57.037Z,3.00
2023-07-04T23:50:26.785Z,2.25
2023-07-04T23:52:54.896Z,2.80
2023-07-04T23:55:23.775Z,5.85
2023-07-04T23:57:53.411Z,2.60
